Latest Coastal Weather Observations for Ngayawili (Elcho Island)

IDD60701

Issued at 10:51 pm CST Tuesday 16 January 2018 (issued every 10 minutes, with the page automatically refreshed every 10 minutes)

About coastal observations | Map of coastal stations | Coastal observations for NT | Marine services | Other Formats
Station Details ID: 014517 Name: NGAYAWILI Lat: -12.00 Lon: 135.57 Height: 8.1 m
Data from the previous 72 hours. | See also: Recent months at Ngayawili (Elcho Island)
Date/Time
CST
Temp
°C
Wind Pressure Rain since
9am
mm
Weather Cloud Vis
km
Sea
Height
m
Swell
Dir  Spd
kts
Gust
kts
hPa Trend Height
m
Period
s
Dir
16/10:30pm 30.2 NNW 9 10 1006.0 - 0.0 - - - - - - -
16/10:00pm 30.2 NNW 7 11 1005.9 - 0.0 - - - - - - -
16/09:30pm 30.3 NNW 9 11 1005.4 - 0.0 - - - - - - -
16/09:00pm 30.3 NNW 9 12 1004.9 - 0.0 - - - - - - -
16/08:30pm 30.4 N 8 11 1004.8 - 0.0 - - - - - - -
16/08:00pm 30.4 N 8 9 1004.4 - 0.0 - - - - - - -
16/07:30pm 30.4 N 9 11 1003.9 - 0.0 - - - - - - -
16/07:00pm 30.6 N 10 13 1003.3 - 0.0 - - - - - - -
16/06:30pm 30.8 N 9 10 1003.1 - 0.0 - - - - - - -
16/06:00pm 30.9 NNW 8 11 1003.4 - 0.0 - - - - - - -
16/05:30pm 31.6 NNW 11 13 1002.5 - 0.0 - - - - - - -
16/05:00pm 32.0 NNW 9 11 1002.6 - 0.0 - - - - - - -
16/04:30pm 32.4 NNW 9 11 1002.5 - 0.0 - - - - - - -
16/04:00pm 33.2 NNW 9 11 1002.6 - 0.0 - - - - - - -
16/03:30pm 32.6 NNW 9 11 1002.8 - 0.0 - - - - - - -
16/03:00pm 32.8 NNW 8 11 1003.1 - 0.0 - - - - - - -
16/02:30pm 32.7 NNW 8 10 1003.4 - 0.0 - - - - - - -
16/02:00pm 32.6 NNW 9 10 1004.0 - 0.0 - - - - - - -
16/01:30pm 33.0 NW 8 10 1004.5 - 0.0 - - - - - - -
16/01:00pm 32.6 NW 7 9 1004.9 - 0.0 - - - - - - -
16/12:30pm 32.7 NW 7 8 1005.3 - 0.0 - - - - - - -
16/12:00pm 32.8 NW 6 7 1005.6 - 0.0 - - - - - - -
16/11:30am 32.7 WNW 5 7 1005.9 - 0.0 - - - - - - -
16/11:00am 32.2 NNW 7 10 1005.9 - 0.0 - - - - - - -
16/10:30am 32.4 NNW 9 11 1006.1 - 0.0 - - - - - - -
16/10:00am 32.3 NNW 8 10 1006.1 - 0.0 - - - - - - -
16/09:30am 31.4 NNW 9 11 1006.0 - 0.0 - - - - - - -
16/09:00am 31.5 NW 10 11 1005.8 - 0.0 - - - - - - -
16/08:30am 31.3 NW 9 11 1005.8 - 0.0 - - - - - - -
16/08:00am 30.8 NNW 10 11 1005.6 - 0.0 - - - - - - -
16/07:30am 30.4 NNW 10 12 1005.2 - 0.0 - - - - - - -
16/07:00am 30.2 NW 9 11 1004.7 - 0.0 - - - - - - -
16/06:30am 29.8 NW 10 11 1004.3 - 0.0 - - - - - - -
16/06:00am 29.8 NW 9 10 1004.4 - 0.0 - - - - - - -
16/05:30am 29.8 NW 9 11 1004.3 - 0.0 - - - - - - -
16/05:00am 29.7 WNW 8 9 1004.0 - 0.0 - - - - - - -
16/04:30am 29.7 WNW 9 11 1004.1 - 0.0 - - - - - - -
16/04:00am 29.8 WNW 9 11 1004.2 - 0.0 - - - - - - -
16/03:30am 29.8 WNW 9 11 1004.3 - 0.0 - - - - - - -
16/03:00am 29.8 NW 9 11 1004.4 - 0.0 - - - - - - -
16/02:30am 29.9 NW 10 13 1004.5 - 0.0 - - - - - - -
16/02:00am 29.9 NNW 9 11 1004.5 - 0.0 - - - - - - -
16/01:30am 29.8 NNW 9 11 1004.5 - 0.0 - - - - - - -
16/01:00am 29.9 NNW 8 10 1004.8 - 0.0 - - - - - - -
16/12:30am 29.9 NNW 7 8 1005.1 - 0.0 - - - - - - -
16/12:00am 29.9 NNW 6 7 1005.4 - 0.0 - - - - - - -
 
Date/Time
CST
Temp
°C
Wind Pressure Rain since
9am
mm
Weather Cloud Vis
km
Sea
Height
m
Swell
Dir  Spd
kts
Gust
kts
hPa Trend Height
m
Period
s
Dir
15/11:30pm 30.0 NNW 7 9 1005.5 - 0.0 - - - - - - -
15/11:00pm 30.1 NW 8 11 1005.5 - 0.0 - - - - - - -
15/10:30pm 30.2 NW 10 11 1005.4 - 0.0 - - - - - - -
15/10:00pm 30.3 NW 9 11 1005.4 - 0.0 - - - - - - -
15/09:30pm 30.3 WNW 8 10 1005.4 - 0.0 - - - - - - -
15/09:00pm 30.4 WNW 8 10 1005.4 - 0.0 - - - - - - -
15/08:30pm 30.4 WNW 9 10 1005.3 - 0.0 - - - - - - -
15/08:00pm 30.4 WNW 8 10 1005.1 - 0.0 - - - - - - -
15/07:30pm 30.4 NW 9 10 1004.8 - 0.0 - - - - - - -
15/07:00pm 30.3 NW 9 10 1004.1 - 0.0 - - - - - - -
15/06:30pm 30.6 NW 9 11 1003.5 - 0.0 - - - - - - -
15/06:00pm 30.9 NW 10 12 1003.4 - 0.0 - - - - - - -
15/05:30pm 31.3 NNW 10 12 1003.3 - 0.0 - - - - - - -
15/05:00pm 31.4 NW 10 11 1003.3 - 0.0 - - - - - - -
15/04:30pm 31.7 NW 10 12 1003.2 - 0.0 - - - - - - -
15/04:00pm 32.3 NW 10 12 1003.1 - 0.0 - - - - - - -
15/03:30pm 32.6 NW 11 13 1003.3 - 0.0 - - - - - - -
15/03:00pm 33.0 NW 11 13 1003.5 - 0.0 - - - - - - -
15/02:30pm 32.9 NW 11 13 1004.4 - 0.0 - - - - - - -
15/02:00pm 32.8 NW 11 14 1004.8 - 0.0 - - - - - - -
15/01:30pm 32.8 NW 10 13 1005.3 - 0.0 - - - - - - -
15/01:00pm 32.8 NW 11 13 1005.4 - 0.0 - - - - - - -
15/12:30pm 33.0 NW 9 12 1005.9 - 0.0 - - - - - - -
15/12:00pm 31.9 NW 9 11 1006.3 - 0.0 - - - - - - -
15/11:30am 32.3 NW 10 11 1006.6 - 0.0 - - - - - - -
15/11:00am 32.2 NW 9 11 1006.9 - 0.0 - - - - - - -
15/10:30am 32.1 NW 10 12 1007.1 - 0.0 - - - - - - -
15/10:00am 31.9 NW 9 11 1007.3 - 0.0 - - - - - - -
15/09:30am 31.7 NW 10 13 1007.3 - 0.0 - - - - - - -
15/09:00am 30.8 WNW 11 13 1007.1 - 0.0 - - - - - - -
15/08:30am 31.1 NW 9 11 1006.8 - 0.0 - - - - - - -
15/08:00am 30.7 NW 10 13 1006.7 - 0.0 - - - - - - -
15/07:30am 30.3 NW 10 11 1006.6 - 0.0 - - - - - - -
15/07:00am 29.8 NW 11 13 1006.1 - 0.0 - - - - - - -
15/06:30am 29.7 NW 11 13 1005.8 - 0.0 - - - - - - -
15/06:00am 29.7 NNW 10 12 1005.6 - 0.0 - - - - - - -
15/05:30am 29.6 NNW 10 12 1005.5 - 0.0 - - - - - - -
15/05:00am 29.7 NNW 10 12 1005.0 - 0.0 - - - - - - -
15/04:30am 29.8 NW 11 13 1004.7 - 0.0 - - - - - - -
15/04:00am 29.7 NW 10 12 1004.6 - 0.0 - - - - - - -
15/03:30am 29.8 NNW 9 11 1004.8 - 0.0 - - - - - - -
15/03:00am 29.7 NW 8 10 1005.3 - 0.0 - - - - - - -
15/02:30am 29.9 NNW 10 11 1005.3 - 0.0 - - - - - - -
15/02:00am 29.8 N 9 11 1005.4 - 0.0 - - - - - - -
15/01:30am 29.6 N 8 10 1005.7 - 0.0 - - - - - - -
15/01:00am 25.8 NNE 3 6 1006.0 - 0.0 - - - - - - -
15/12:30am 25.5 NNE 3 5 1006.2 - 0.0 - - - - - - -
15/12:00am 26.0 CALM 0 0 1006.5 - 0.0 - - - - - - -
 
Date/Time
CST
Temp
°C
Wind Pressure Rain since
9am
mm
Weather Cloud Vis
km
Sea
Height
m
Swell
Dir  Spd
kts
Gust
kts
hPa Trend Height
m
Period
s
Dir
14/11:30pm 26.2 CALM 0 0 1006.9 - 0.0 - - - - - - -
14/11:00pm 26.7 CALM 0 0 1007.2 - 0.0 - - - - - - -
14/10:30pm 28.3 N 5 7 1007.1 - 0.0 - - - - - - -
14/10:00pm 29.2 N 5 7 1007.0 - 0.0 - - - - - - -
14/09:30pm 28.3 NNE 4 6 1006.6 - 0.0 - - - - - - -
14/09:00pm 29.7 N 6 7 1006.2 - 0.0 - - - - - - -
14/08:30pm 30.0 N 6 7 1006.0 - 0.0 - - - - - - -
14/08:00pm 30.7 N 9 11 1005.7 - 0.0 - - - - - - -
14/07:30pm 30.8 N 9 11 1005.8 - 0.0 - - - - - - -
14/07:00pm 31.0 N 8 10 1005.9 - 0.0 - - - - - - -
14/06:30pm 31.4 N 11 12 1005.5 - 0.0 - - - - - - -
14/06:00pm 31.9 N 12 14 1005.4 - 0.0 - - - - - - -
14/05:30pm 32.0 N 12 14 1005.3 - 0.0 - - - - - - -
14/05:00pm 32.6 N 13 15 1005.1 - 0.0 - - - - - - -
14/04:30pm 32.5 N 11 13 1005.3 - 0.0 - - - - - - -
14/04:00pm 32.8 N 11 13 1005.6 - 0.0 - - - - - - -
14/03:30pm 32.8 NNW 9 11 1005.5 - 0.0 - - - - - - -
14/03:00pm 33.0 NNW 10 11 1005.7 - 0.0 - - - - - - -
14/02:30pm 32.6 NNW 9 10 1006.1 - 0.0 - - - - - - -
14/02:00pm 32.6 NNW 7 9 1006.4 - 0.0 - - - - - - -
14/01:30pm 32.5 NNW 8 10 1006.9 - 0.0 - - - - - - -
14/01:00pm 31.7 NW 7 8 1007.4 - 0.0 - - - - - - -
14/12:30pm 32.2 NW 7 8 1007.7 - 0.0 - - - - - - -
14/12:00pm 31.7 NW 6 8 1008.0 - 0.0 - - - - - - -
14/11:30am 31.3 NW 6 7 1008.4 - 0.0 - - - - - - -
14/11:00am 31.0 W 6 7 1008.5 - 0.0 - - - - - - -
14/10:30am 30.8 WSW 5 7 1008.7 - 0.0 - - - - - - -
14/10:00am 30.8 WSW 5 7 1008.7 - 0.0 - - - - - - -
14/09:30am 30.1 W 4 5 1008.6 - 0.0 - - - - - - -
14/09:00am 29.5 WNW 3 4 1008.6 - 0.0 - - - - - - -
14/08:30am 29.4 SW 2 4 1008.5 - 0.0 - - - - - - -
14/08:00am 29.4 SE 3 4 1008.4 - 0.0 - - - - - - -
14/07:30am 28.3 ESE 3 5 1008.3 - 0.0 - - - - - - -
14/07:00am 26.1 SE 5 6 1007.9 - 0.0 - - - - - - -
14/06:30am 24.9 SE 4 5 1007.5 - 0.0 - - - - - - -
14/06:00am 25.0 SE 5 5 1007.2 - 0.0 - - - - - - -
14/05:30am 25.2 SSE 5 5 1007.1 - 0.0 - - - - - - -
14/05:00am 25.1 SE 5 5 1006.8 - 0.0 - - - - - - -
14/04:30am 25.4 SE 4 5 1006.6 - 0.0 - - - - - - -
14/04:00am 25.2 SE 5 5 1006.7 - 0.0 - - - - - - -
14/03:30am 25.4 ENE 5 5 1006.8 - 0.0 - - - - - - -
14/03:00am 25.1 E 4 5 1007.0 - 0.0 - - - - - - -
14/02:30am 25.5 E 4 5 1007.2 - 0.0 - - - - - - -
14/02:00am 25.4 ESE 4 5 1007.5 - 0.0 - - - - - - -
14/01:30am 26.1 E 4 5 1007.7 - 0.0 - - - - - - -
14/01:00am 25.9 E 4 5 1008.1 - 0.0 - - - - - - -
14/12:30am 25.8 E 4 5 1008.6 - 0.0 - - - - - - -
14/12:00am 26.3 ESE 4 5 1008.9 - 0.0 - - - - - - -
 
Date/Time
CST
Temp
°C
Wind Pressure Rain since
9am
mm
Weather Cloud Vis
km
Sea
Height
m
Swell
Dir  Spd
kts
Gust
kts
hPa Trend Height
m
Period
s
Dir
13/11:30pm 27.0 E 5 6 1009.1 - 0.0 - - - - - - -
13/11:00pm 26.8 E 4 5 1009.1 - 0.0 - - - - - - -

Other Formats:

Comma delimited format used in spreadsheet applications
http://www.bom.gov.au/fwo/IDD60701/IDD60701.95146.axf

JavaScript Object Notation format (JSON) in row-major order
http://www.bom.gov.au/fwo/IDD60701/IDD60701.95146.json